Upham, ND

12:01 PM CDT on July 24, 2014 (GMT -0500)
Deering Mobile Home Estates (KNDDEERI2) Elev 1549 ft | 48.40 °N, 101.05 °W | Change Station
Active Advisory: Flood Warning Active Notice: Public Information Statement

Current weather conditions updated 9 minutes ago

Clear
Clear
73.6 °F
Feels Like 75 °F
N
5.3
Wind Variable Wind from SSE

Today is forecast to be Warmer than yesterday.

Today
High -- | Low -- °F
--% Chance of Precip.
Yesterday
High -- | Low -- °F
Precip. -- in
6:07 AM 9:31 PM
Waning Crescent, 5% visible
Pressure 29.83 in
Visibility 10.0 miles
Clouds Clear
Heat Index 75 °F
Dew Point 64 °F
Humidity 72%
Rainfall 0.15 in
Snow Depth Not available.
UV 8 out of 12
Pollen 6.70 out of 12
Air Quality Not available.
Flu Activity Not available.
METAR KMIB 241658Z AUTO 16009KT 10SM CLR 23/19 A2983 RMK AO2 SLP101 T02290192 $

More Conditions Fewer Conditions

Pressure 29.83 in
Visibility 10.0 miles
Clouds Clear
Heat Index 75 °F
Dew Point 64 °F
Humidity 72%
Rainfall 0.15 in
Snow Depth Not available.
UV 8 out of 12
Pollen 6.70 out of 12
Air Quality Not available.
Flu Activity Not available.
METAR KMIB 241658Z AUTO 16009KT 10SM CLR 23/19 A2983 RMK AO2 SLP101 T02290192 $

More Conditions Fewer Conditions

10-Day Weather Forecast

Almanac

Astronomy

Jul. 24, 2014 Rise Set
Actual Time 6:07 AM CDT 9:31 PM CDT
Civil Twilight 5:28 AM CDT 10:09 PM CDT
Nautical Twilight 4:37 AM CDT 11:00 PM CDT
Astronomical Twilight 3:29 AM CDT 12:06 AM CDT
Moon 4:18 AM CDT 7:44 PM CDT
Length of Visible Light 16h 40m
Length of Day
15h 24m
Tomorrow will be 2m 28s shorter.
Waning Crescent, 5% of the Moon is Illuminated
Today
Waning Crescent
Jul 26
New
Aug 3
First Quarter
Aug 10
Full
Aug 17
Last Quarter

Today's Extremes

State Highs State Lows

Community

WunderPhotos

Upload Photos

1,737,071 photos uploaded!

Nearby

Snow Depth

Station Depth Elevation
No new snow has been reported.

Earthquake Activity

City Distance Mag. Time & Date
No recent earthquake activity has been reported nearby.
Minimum magnitude displayed is 2.5.

Coastal Water Temperatures

Place Temperature
No Stations Reporting

Nearby Weather Stations

Station Location Temp. Heat Index Dew Point Humidity Wind Precip. Elev Updated Type
RAWS J. CLARK SALYER ND, Upham, ND 65 °F - 63 °F 93% East  at  4 mph 0.00 in / hr 1439 ft 10:46 AM CDT MADIS
Deering Mobile Home Estates, Deering, ND 73.6 °F 75 °F 64 °F 72% SSE  at  5.3 mph - / hr 1549 ft 11:52 AM CDT Normal

Show More Stations Show Fewer Stations